Terminal Aerodrome Forecast
Issued by NWS

Home | Current Version | Previous Version | Text Only | Print | Product List | Glossary On
Versions: 1 2 3 4 5 6 7 8 9 10 11 12 13 14 15 16 17 18 19 20 21 22 23
000
FTUS46 KSEW 291125
TAFOLM
TAF
KOLM 291125Z 2912/3012 19009KT 5SM -RA BR SCT009 BKN018 OVC030
      TEMPO 2912/2915 3SM RA BR
     FM291800 21013G22KT 5SM -RA BR BKN022 OVC040
     FM292100 23013G22KT P6SM -SHRA BKN035 OVC050
     FM300000 23011KT P6SM VCSH SCT035 BKN060 BKN200
     FM300600 23007KT P6SM SCT035 SCT060 BKN200 PROB30 3006/3012
      -SHRA OVC035=

USA.gov is the U.S. government's official web portal to all federal, state and local government web resources and services.